createdAt,value
2022-08-19T00:01:57.872Z,7.03
2022-08-19T00:04:31.539Z,7.57
2022-08-19T00:06:59.715Z,6.28
2022-08-19T00:09:27.583Z,6.88
2022-08-19T00:11:56.654Z,6.30
2022-08-19T00:14:25.530Z,6.45
2022-08-19T00:16:55.565Z,6.50
2022-08-19T00:19:24.583Z,5.65
2022-08-19T00:21:52.758Z,5.90
2022-08-19T00:24:20.357Z,5.60
2022-08-19T00:26:48.948Z,5.30
2022-08-19T00:29:20.023Z,4.35
2022-08-19T00:31:47.937Z,4.88
2022-08-19T00:34:17.758Z,4.55
2022-08-19T00:36:45.509Z,4.50
2022-08-19T00:39:13.733Z,4.68
2022-08-19T00:41:41.430Z,4.45
2022-08-19T00:44:16.327Z,5.22
2022-08-19T00:46:55.466Z,4.40
2022-08-19T00:49:26.068Z,5.15
2022-08-19T00:51:58.604Z,4.97
2022-08-19T00:54:28.666Z,4.97
2022-08-19T00:57:00.828Z,5.25
2022-08-19T01:00:00.416Z,5.25
2022-08-19T01:02:18.036Z,4.82
2022-08-19T01:04:45.604Z,5.50
2022-08-19T01:07:15.200Z,5.20
2022-08-19T01:09:44.856Z,4.95
2022-08-19T01:12:12.546Z,5.55
2022-08-19T01:14:41.434Z,5.55
2022-08-19T01:17:10.968Z,4.80
2022-08-19T01:19:44.131Z,5.60
2022-08-19T01:22:16.844Z,5.57
2022-08-19T01:24:49.601Z,5.18
2022-08-19T01:27:18.067Z,5.97
2022-08-19T01:29:46.113Z,6.18
2022-08-19T01:32:33.306Z,5.82
2022-08-19T01:35:02.989Z,5.28
2022-08-19T01:37:31.860Z,5.22
2022-08-19T01:39:59.593Z,5.63
2022-08-19T01:42:28.152Z,4.93
2022-08-19T01:44:58.148Z,4.68
2022-08-19T01:47:25.458Z,5.03
2022-08-19T01:49:53.186Z,5.32
2022-08-19T01:52:20.338Z,4.38
2022-08-19T01:54:47.452Z,4.47
2022-08-19T01:57:15.660Z,4.03
2022-08-19T01:59:44.021Z,4.55
2022-08-19T02:02:11.639Z,4.13
2022-08-19T02:04:39.644Z,4.32
2022-08-19T02:07:09.254Z,3.97
2022-08-19T02:09:36.616Z,4.82
2022-08-19T02:12:05.555Z,4.35
2022-08-19T02:14:35.356Z,5.00
2022-08-19T02:17:02.915Z,4.55
2022-08-19T02:19:30.109Z,4.25
2022-08-19T02:21:57.193Z,4.90
2022-08-19T02:24:24.550Z,4.38
2022-08-19T02:26:52.380Z,4.20
2022-08-19T02:29:19.642Z,4.13
2022-08-19T02:31:46.828Z,4.10
2022-08-19T02:34:13.934Z,3.75
2022-08-19T02:36:42.522Z,3.70
2022-08-19T02:39:10.922Z,3.67
2022-08-19T02:41:38.278Z,3.55
2022-08-19T02:44:29.068Z,3.65
2022-08-19T02:46:52.759Z,4.35
2022-08-19T02:49:20.891Z,3.97
2022-08-19T02:51:48.498Z,3.40
2022-08-19T02:54:15.891Z,3.30
2022-08-19T02:56:45.385Z,3.35
2022-08-19T02:59:13.081Z,4.00
2022-08-19T03:01:42.414Z,3.17
2022-08-19T03:04:14.971Z,3.03
2022-08-19T03:06:44.613Z,3.20
2022-08-19T03:09:13.222Z,3.53
2022-08-19T03:11:41.345Z,3.55
2022-08-19T03:14:09.617Z,3.53
2022-08-19T03:16:45.261Z,3.67
2022-08-19T03:19:12.973Z,3.38
2022-08-19T03:21:40.017Z,3.30
2022-08-19T03:24:09.213Z,3.90
2022-08-19T03:26:41.276Z,3.13
2022-08-19T03:29:10.174Z,3.42
2022-08-19T03:31:43.488Z,3.60
2022-08-19T03:34:15.216Z,3.47
2022-08-19T03:36:42.538Z,3.55
2022-08-19T03:39:11.688Z,3.30
2022-08-19T03:41:45.271Z,2.72
2022-08-19T03:44:18.189Z,3.72
2022-08-19T03:46:47.971Z,3.95
2022-08-19T03:49:18.055Z,3.72
2022-08-19T03:51:54.595Z,3.53
2022-08-19T03:54:24.079Z,3.85
2022-08-19T03:56:53.542Z,3.67
2022-08-19T03:59:28.118Z,3.60
2022-08-19T04:01:58.216Z,4.25
2022-08-19T04:04:29.208Z,4.32
2022-08-19T04:06:57.352Z,4.03
2022-08-19T04:09:25.490Z,4.25
2022-08-19T04:11:55.227Z,4.30
2022-08-19T04:14:25.671Z,3.47
2022-08-19T04:16:53.628Z,4.15
2022-08-19T04:19:21.756Z,4.85
2022-08-19T04:21:51.373Z,4.22
2022-08-19T04:24:19.739Z,4.20
2022-08-19T04:26:47.753Z,3.72
2022-08-19T04:29:22.908Z,4.07
2022-08-19T04:31:50.989Z,3.63
2022-08-19T04:34:23.351Z,4.43
2022-08-19T04:36:52.284Z,4.13
2022-08-19T04:39:44.681Z,3.72
2022-08-19T04:42:31.160Z,3.35
2022-08-19T04:44:59.682Z,4.35
2022-08-19T04:47:48.016Z,3.97
2022-08-19T04:50:16.239Z,4.13
2022-08-19T04:52:46.198Z,3.40
2022-08-19T04:55:13.787Z,3.88
2022-08-19T04:57:41.584Z,3.63
2022-08-19T05:00:10.267Z,3.50
2022-08-19T05:02:38.232Z,3.60
2022-08-19T05:05:07.674Z,3.95
2022-08-19T05:07:35.640Z,3.97
2022-08-19T05:10:05.787Z,3.53
2022-08-19T05:12:33.381Z,4.00
2022-08-19T05:15:01.913Z,3.97
2022-08-19T05:17:34.848Z,3.83
2022-08-19T05:20:25.242Z,3.90
2022-08-19T05:22:53.600Z,3.80
2022-08-19T05:25:23.105Z,4.07
2022-08-19T05:27:50.611Z,3.80
2022-08-19T05:30:18.731Z,4.10
2022-08-19T05:32:57.513Z,4.28
2022-08-19T05:35:25.209Z,4.25
2022-08-19T05:37:54.988Z,4.38
2022-08-19T05:40:26.842Z,4.18
2022-08-19T05:42:55.209Z,4.97
2022-08-19T05:45:23.008Z,5.30
2022-08-19T05:47:50.209Z,4.00
2022-08-19T05:50:18.667Z,3.67
2022-08-19T05:52:50.194Z,4.00
2022-08-19T05:55:21.310Z,3.95
2022-08-19T05:57:48.535Z,3.85
2022-08-19T06:00:15.861Z,4.38
2022-08-19T06:02:46.196Z,4.03
2022-08-19T06:05:13.683Z,4.25
2022-08-19T06:07:41.415Z,4.20
2022-08-19T06:10:11.505Z,4.10
2022-08-19T06:12:39.520Z,4.50
2022-08-19T06:15:12.495Z,4.10
2022-08-19T06:17:39.923Z,4.22
2022-08-19T06:20:11.092Z,4.20
2022-08-19T06:22:40.092Z,4.90
2022-08-19T06:25:13.080Z,4.95
2022-08-19T06:28:13.658Z,5.32
2022-08-19T06:30:28.312Z,5.40
2022-08-19T06:32:55.404Z,5.93
2022-08-19T06:35:23.248Z,5.65
2022-08-19T06:37:50.395Z,5.82
2022-08-19T06:40:17.575Z,5.85
2022-08-19T06:42:54.079Z,5.63
2022-08-19T06:45:24.861Z,5.85
2022-08-19T06:48:04.463Z,6.00
2022-08-19T06:50:31.611Z,6.18
2022-08-19T06:52:59.779Z,5.32
2022-08-19T06:55:33.243Z,5.82
2022-08-19T06:58:05.860Z,6.30
2022-08-19T07:00:33.416Z,5.85
2022-08-19T07:03:04.487Z,6.30
2022-08-19T07:05:33.467Z,5.63
2022-08-19T07:08:04.953Z,5.75
2022-08-19T07:10:33.921Z,6.22
2022-08-19T07:13:01.414Z,5.28
2022-08-19T07:15:28.553Z,6.28
2022-08-19T07:17:56.796Z,4.53
2022-08-19T07:20:28.430Z,4.63
2022-08-19T07:22:56.181Z,4.82
2022-08-19T07:25:32.373Z,5.00
2022-08-19T07:28:01.647Z,4.63
2022-08-19T07:30:29.117Z,4.47
2022-08-19T07:32:57.660Z,4.68
2022-08-19T07:35:24.981Z,4.80
2022-08-19T07:37:54.181Z,4.25
2022-08-19T07:40:21.624Z,4.30
2022-08-19T07:42:48.768Z,3.85
2022-08-19T07:45:17.112Z,4.15
2022-08-19T07:47:48.196Z,3.92
2022-08-19T07:50:20.573Z,3.80
2022-08-19T07:52:50.737Z,3.58
2022-08-19T07:55:41.763Z,3.72
2022-08-19T07:58:10.019Z,3.08
2022-08-19T08:00:37.438Z,3.53
2022-08-19T08:03:04.837Z,3.78
2022-08-19T08:05:50.462Z,3.85
2022-08-19T08:08:44.195Z,3.35
2022-08-19T08:11:15.498Z,3.92
2022-08-19T08:13:43.608Z,4.03
2022-08-19T08:16:14.122Z,4.10
2022-08-19T08:18:50.250Z,3.58
2022-08-19T08:21:18.133Z,3.75
2022-08-19T08:23:45.274Z,3.53
2022-08-19T08:26:14.180Z,3.25
2022-08-19T08:28:43.234Z,4.47
2022-08-19T08:33:43.448Z,3.50
2022-08-19T08:36:12.103Z,3.90
2022-08-19T08:38:41.345Z,3.90
2022-08-19T08:41:29.760Z,3.97
2022-08-19T08:43:58.509Z,3.85
2022-08-19T08:46:43.622Z,4.45
2022-08-19T08:49:37.448Z,4.07
2022-08-19T08:52:11.149Z,3.50
2022-08-19T08:54:55.461Z,3.50
2022-08-19T08:57:56.102Z,3.90
2022-08-19T09:00:44.202Z,3.40
2022-08-19T09:03:26.422Z,3.03
2022-08-19T09:08:58.781Z,2.95
2022-08-19T09:11:42.431Z,3.30
2022-08-19T09:14:49.784Z,3.40
2022-08-19T09:17:18.489Z,3.55
2022-08-19T09:19:57.188Z,3.10
2022-08-19T09:22:25.742Z,3.88
2022-08-19T09:24:55.344Z,3.00
2022-08-19T09:27:42.868Z,2.90
2022-08-19T09:30:17.198Z,3.00
2022-08-19T09:32:45.728Z,2.88
2022-08-19T09:35:14.538Z,4.07
2022-08-19T09:37:44.018Z,3.28
2022-08-19T09:40:15.435Z,3.47
2022-08-19T09:42:49.639Z,3.20
2022-08-19T09:45:21.850Z,3.17
2022-08-19T09:47:53.830Z,3.83
2022-08-19T09:50:23.936Z,3.83
2022-08-19T09:52:55.715Z,3.20
2022-08-19T09:55:31.774Z,3.00
2022-08-19T09:58:03.535Z,3.17
2022-08-19T10:00:32.097Z,3.22
2022-08-19T10:02:59.515Z,3.10
2022-08-19T10:05:45.102Z,2.85
2022-08-19T10:08:28.187Z,3.25
2022-08-19T10:10:56.539Z,2.72
2022-08-19T10:13:28.669Z,2.80
2022-08-19T10:15:58.466Z,2.90
2022-08-19T10:18:26.567Z,2.88
2022-08-19T10:20:54.664Z,2.58
2022-08-19T10:23:22.792Z,2.95
2022-08-19T10:25:50.868Z,3.45
2022-08-19T10:28:19.166Z,3.25
2022-08-19T10:30:48.206Z,2.60
2022-08-19T10:33:38.627Z,2.63
2022-08-19T10:36:18.947Z,2.92
2022-08-19T10:41:25.675Z,3.08
2022-08-19T10:43:56.208Z,2.85
2022-08-19T10:46:25.663Z,2.47
2022-08-19T10:48:53.986Z,3.08
2022-08-19T10:51:47.809Z,2.83
2022-08-19T10:54:16.711Z,3.20
2022-08-19T10:56:53.084Z,2.58
2022-08-19T10:59:35.790Z,2.63
2022-08-19T11:02:06.321Z,2.65
2022-08-19T11:04:34.352Z,2.55
2022-08-19T11:07:04.522Z,2.72
2022-08-19T11:09:34.204Z,2.58
2022-08-19T11:12:02.717Z,2.63
2022-08-19T11:14:34.188Z,2.50
2022-08-19T11:17:02.634Z,2.90
2022-08-19T11:19:29.804Z,3.05
2022-08-19T11:21:57.586Z,2.60
2022-08-19T11:24:28.550Z,2.78
2022-08-19T11:27:02.253Z,2.90
2022-08-19T11:29:30.306Z,2.90
2022-08-19T11:31:57.333Z,2.85
2022-08-19T11:34:29.455Z,2.50
2022-08-19T11:37:01.167Z,2.88
2022-08-19T11:39:31.445Z,3.07
2022-08-19T11:41:59.648Z,3.53
2022-08-19T11:44:27.006Z,2.63
2022-08-19T11:46:54.257Z,3.03
2022-08-19T11:49:22.373Z,2.58
2022-08-19T11:51:51.825Z,2.90
2022-08-19T11:54:22.041Z,2.70
2022-08-19T11:56:50.130Z,2.90
2022-08-19T11:59:17.334Z,3.92
2022-08-19T12:01:45.026Z,3.45
2022-08-19T12:04:12.526Z,2.97
2022-08-19T12:06:42.231Z,3.28
2022-08-19T12:09:10.929Z,3.08
2022-08-19T12:11:39.716Z,3.08
2022-08-19T12:14:09.891Z,3.20
2022-08-19T12:16:51.074Z,3.10
2022-08-19T12:19:21.764Z,3.15
2022-08-19T12:21:50.057Z,3.55
2022-08-19T12:24:21.591Z,3.45
2022-08-19T12:26:53.337Z,4.07
2022-08-19T12:29:23.987Z,4.10
2022-08-19T12:31:52.624Z,3.83
2022-08-19T12:34:21.285Z,3.88
2022-08-19T12:36:50.519Z,3.25
2022-08-19T12:39:18.542Z,3.50
2022-08-19T12:41:51.615Z,3.80
2022-08-19T12:44:29.399Z,3.20
2022-08-19T12:47:00.802Z,3.17
2022-08-19T12:49:53.187Z,3.20
2022-08-19T12:52:23.173Z,3.30
2022-08-19T12:54:54.525Z,3.78
2022-08-19T12:57:31.810Z,4.32
2022-08-19T13:00:11.918Z,3.45
2022-08-19T13:02:41.788Z,2.90
2022-08-19T13:05:12.229Z,3.88
2022-08-19T13:07:41.311Z,3.28
2022-08-19T13:10:10.473Z,3.58
2022-08-19T13:12:38.058Z,4.57
2022-08-19T13:15:11.493Z,4.88
2022-08-19T13:17:40.528Z,3.75
2022-08-19T13:20:12.303Z,3.25
2022-08-19T13:22:39.693Z,3.65
2022-08-19T13:25:08.585Z,4.03
2022-08-19T13:27:36.776Z,3.45
2022-08-19T13:30:23.967Z,3.95
2022-08-19T13:33:09.610Z,3.63
2022-08-19T13:35:36.858Z,4.88
2022-08-19T13:38:05.942Z,5.18
2022-08-19T13:40:41.183Z,4.93
2022-08-19T13:43:17.449Z,5.65
2022-08-19T13:45:56.494Z,6.55
2022-08-19T13:48:24.748Z,7.07
2022-08-19T13:50:52.054Z,8.75
2022-08-19T13:53:19.556Z,9.57
2022-08-19T13:55:47.872Z,9.30
2022-08-19T13:58:15.594Z,9.77
2022-08-19T14:00:45.995Z,10.13
2022-08-19T14:03:14.473Z,10.82
2022-08-19T14:05:41.671Z,11.00
2022-08-19T14:08:08.934Z,9.98
2022-08-19T14:10:36.169Z,10.55
2022-08-19T14:13:04.680Z,9.10
2022-08-19T14:15:32.044Z,9.27
2022-08-19T14:17:59.319Z,9.80
2022-08-19T14:20:26.849Z,9.23
2022-08-19T14:22:54.909Z,9.43
2022-08-19T14:25:26.725Z,9.65
2022-08-19T14:27:54.120Z,10.70
2022-08-19T14:30:26.589Z,9.88
2022-08-19T14:32:55.230Z,9.15
2022-08-19T14:35:23.568Z,9.45
2022-08-19T14:37:51.987Z,9.30
2022-08-19T14:40:26.821Z,6.07
2022-08-19T14:43:00.432Z,7.25
2022-08-19T14:45:29.819Z,7.60
2022-08-19T14:47:57.333Z,8.00
2022-08-19T14:50:24.548Z,8.00
2022-08-19T14:53:06.390Z,8.73
2022-08-19T14:55:44.523Z,9.70
2022-08-19T14:58:29.137Z,9.52
2022-08-19T15:01:00.290Z,9.77
2022-08-19T15:03:28.370Z,8.60
2022-08-19T15:05:58.703Z,8.38
2022-08-19T15:08:27.652Z,7.93
2022-08-19T15:10:55.235Z,6.93
2022-08-19T15:13:22.804Z,6.65
2022-08-19T15:15:49.954Z,6.13
2022-08-19T15:18:17.060Z,6.25
2022-08-19T15:20:46.755Z,5.30
2022-08-19T15:23:19.115Z,5.65
2022-08-19T15:25:46.610Z,4.63
2022-08-19T15:28:14.139Z,4.90
2022-08-19T15:30:42.454Z,4.80
2022-08-19T15:33:15.323Z,4.57
2022-08-19T15:35:43.883Z,5.55
2022-08-19T15:38:14.073Z,6.72
2022-08-19T15:40:43.605Z,4.95
2022-08-19T15:43:11.659Z,4.65
2022-08-19T15:45:40.427Z,4.10
2022-08-19T15:48:07.955Z,3.80
2022-08-19T15:50:35.982Z,5.05
2022-08-19T15:53:10.339Z,4.47
2022-08-19T15:55:44.842Z,5.10
2022-08-19T15:58:33.066Z,5.13
2022-08-19T16:01:22.430Z,4.40
2022-08-19T16:04:14.732Z,3.65
2022-08-19T16:06:56.569Z,5.05
2022-08-19T16:09:29.100Z,4.70
2022-08-19T16:12:02.578Z,4.05
2022-08-19T16:14:32.935Z,4.65
2022-08-19T16:17:00.552Z,4.10
2022-08-19T16:19:28.150Z,4.03
2022-08-19T16:21:56.651Z,4.20
2022-08-19T16:24:27.080Z,3.53
2022-08-19T16:26:54.969Z,4.07
2022-08-19T16:29:34.737Z,4.18
2022-08-19T16:32:10.497Z,5.22
2022-08-19T16:34:40.202Z,4.25
2022-08-19T16:37:08.072Z,4.07
2022-08-19T16:39:35.300Z,3.83
2022-08-19T16:42:02.945Z,3.67
2022-08-19T16:44:35.092Z,3.80
2022-08-19T16:47:02.493Z,4.00
2022-08-19T16:49:52.965Z,3.90
2022-08-19T16:52:19.287Z,3.35
2022-08-19T16:54:47.050Z,3.80
2022-08-19T16:57:14.173Z,4.13
2022-08-19T16:59:43.813Z,4.00
2022-08-19T17:02:22.617Z,3.85
2022-08-19T17:04:57.202Z,4.15
2022-08-19T17:07:33.137Z,3.78
2022-08-19T17:10:02.785Z,3.92
2022-08-19T17:12:32.095Z,4.70
2022-08-19T17:15:02.728Z,3.50
2022-08-19T17:17:31.806Z,4.05
2022-08-19T17:20:01.303Z,4.32
2022-08-19T17:22:28.685Z,4.47
2022-08-19T17:24:58.255Z,4.03
2022-08-19T17:27:31.631Z,4.05
2022-08-19T17:30:01.326Z,4.32
2022-08-19T17:32:35.117Z,4.38
2022-08-19T17:35:04.848Z,4.63
2022-08-19T17:37:32.591Z,4.05
2022-08-19T17:39:59.832Z,3.83
2022-08-19T17:42:27.020Z,4.40
2022-08-19T17:44:54.447Z,4.65
2022-08-19T17:47:21.594Z,3.80
2022-08-19T17:49:48.755Z,4.57
2022-08-19T17:52:16.386Z,4.30
2022-08-19T17:54:43.565Z,3.80
2022-08-19T17:57:11.201Z,3.97
2022-08-19T17:59:38.581Z,3.70
2022-08-19T18:02:10.806Z,3.88
2022-08-19T18:04:39.487Z,4.57
2022-08-19T18:07:06.647Z,3.92
2022-08-19T18:09:41.729Z,4.68
2022-08-19T18:12:11.773Z,4.03
2022-08-19T18:14:40.186Z,3.80
2022-08-19T18:17:12.982Z,3.33
2022-08-19T18:19:43.363Z,3.20
2022-08-19T18:22:13.287Z,3.50
2022-08-19T18:24:42.215Z,4.03
2022-08-19T18:27:10.264Z,3.33
2022-08-19T18:30:00.287Z,3.42
2022-08-19T18:32:38.552Z,3.22
2022-08-19T18:35:12.526Z,3.50
2022-08-19T18:37:42.748Z,3.40
2022-08-19T18:40:43.366Z,4.20
2022-08-19T18:49:28.747Z,4.30
2022-08-19T18:56:07.980Z,3.17
2022-08-19T19:02:19.872Z,3.25
2022-08-19T19:04:47.364Z,3.13
2022-08-19T19:07:14.579Z,3.53
2022-08-19T19:09:41.898Z,3.90
2022-08-19T19:12:10.821Z,3.50
2022-08-19T19:14:49.903Z,3.13
2022-08-19T19:17:18.023Z,3.20
2022-08-19T19:19:45.899Z,3.50
2022-08-19T19:22:18.653Z,3.20
2022-08-19T19:24:46.036Z,3.10
2022-08-19T19:27:15.877Z,2.83
2022-08-19T19:29:42.984Z,3.50
2022-08-19T19:32:18.742Z,3.28
2022-08-19T19:34:45.933Z,4.32
2022-08-19T19:37:13.947Z,2.70
2022-08-19T19:39:45.374Z,2.88
2022-08-19T19:42:20.730Z,2.95
2022-08-19T19:44:53.922Z,2.88
2022-08-19T19:47:21.786Z,3.05
2022-08-19T19:50:13.171Z,2.63
2022-08-19T19:52:40.668Z,2.92
2022-08-19T19:55:09.617Z,3.00
2022-08-19T19:57:40.247Z,2.80
2022-08-19T20:00:09.706Z,3.03
2022-08-19T20:02:36.774Z,2.95
2022-08-19T20:05:04.695Z,3.08
2022-08-19T20:07:50.555Z,3.08
2022-08-19T20:10:17.814Z,2.83
2022-08-19T20:12:44.920Z,2.53
2022-08-19T20:15:12.140Z,3.00
2022-08-19T20:17:42.442Z,2.72
2022-08-19T20:20:11.569Z,2.95
2022-08-19T20:22:43.181Z,2.85
2022-08-19T20:25:14.568Z,2.67
2022-08-19T20:27:42.485Z,2.78
2022-08-19T20:30:19.430Z,2.80
2022-08-19T20:32:49.133Z,2.78
2022-08-19T20:35:19.703Z,3.05
2022-08-19T20:37:46.959Z,3.22
2022-08-19T20:40:15.070Z,2.60
2022-08-19T20:42:44.283Z,2.47
2022-08-19T20:45:19.688Z,2.45
2022-08-19T20:48:03.411Z,2.72
2022-08-19T20:50:35.960Z,2.42
2022-08-19T20:53:14.408Z,2.67
2022-08-19T20:55:44.627Z,2.90
2022-08-19T20:58:13.618Z,2.85
2022-08-19T21:00:41.437Z,2.67
2022-08-19T21:03:08.681Z,2.80
2022-08-19T21:05:36.498Z,3.42
2022-08-19T21:08:04.795Z,3.08
2022-08-19T21:10:32.615Z,3.65
2022-08-19T21:12:59.677Z,4.38
2022-08-19T21:15:26.756Z,4.03
2022-08-19T21:17:53.970Z,4.35
2022-08-19T21:20:21.349Z,4.20
2022-08-19T21:22:48.521Z,4.45
2022-08-19T21:25:17.319Z,5.28
2022-08-19T21:27:44.391Z,4.85
2022-08-19T21:30:12.357Z,3.80
2022-08-19T21:32:39.653Z,4.88
2022-08-19T21:35:07.013Z,4.28
2022-08-19T21:37:35.604Z,4.25
2022-08-19T21:40:02.879Z,4.18
2022-08-19T21:42:31.092Z,5.07
2022-08-19T21:44:58.365Z,3.70
2022-08-19T21:47:25.624Z,4.95
2022-08-19T21:49:52.701Z,4.80
2022-08-19T21:52:24.328Z,4.68
2022-08-19T21:54:52.272Z,5.00
2022-08-19T21:57:19.458Z,4.10
2022-08-19T21:59:46.634Z,4.88
2022-08-19T22:02:22.104Z,6.03
2022-08-19T22:04:52.177Z,5.32
2022-08-19T22:07:20.617Z,5.15
2022-08-19T22:09:49.658Z,5.50
2022-08-19T22:12:32.427Z,5.65
2022-08-19T22:15:00.369Z,5.30
2022-08-19T22:17:28.237Z,5.53
2022-08-19T22:19:56.286Z,5.82
2022-08-19T22:22:26.706Z,6.35
2022-08-19T22:24:54.719Z,6.07
2022-08-19T22:27:21.806Z,5.90
2022-08-19T22:29:52.302Z,6.65
2022-08-19T22:32:28.007Z,6.90
2022-08-19T22:34:59.524Z,6.65
2022-08-19T22:37:31.900Z,6.85
2022-08-19T22:40:00.718Z,6.63
2022-08-19T22:42:31.744Z,9.18
2022-08-19T22:45:03.485Z,8.40
2022-08-19T22:47:34.051Z,9.20
2022-08-19T22:50:13.725Z,7.75
2022-08-19T22:52:51.740Z,7.43
2022-08-19T22:55:19.601Z,6.90
2022-08-19T22:57:46.679Z,7.10
2022-08-19T23:00:17.050Z,7.43
2022-08-19T23:02:52.236Z,7.78
2022-08-19T23:05:22.686Z,8.95
2022-08-19T23:07:52.588Z,8.80
2022-08-19T23:10:26.708Z,9.85
2022-08-19T23:12:57.923Z,9.45
2022-08-19T23:15:29.619Z,9.02
2022-08-19T23:17:59.927Z,8.95
2022-08-19T23:20:32.689Z,8.45
2022-08-19T23:23:03.387Z,9.93
2022-08-19T23:25:33.403Z,10.48
2022-08-19T23:28:19.735Z,11.65
2022-08-19T23:30:49.007Z,13.68
2022-08-19T23:33:24.353Z,13.85
2022-08-19T23:35:53.913Z,16.23
2022-08-19T23:38:23.505Z,17.15
2022-08-19T23:40:55.394Z,16.75
2022-08-19T23:43:24.995Z,16.88
2022-08-19T23:45:57.295Z,19.92
2022-08-19T23:48:28.360Z,19.52
2022-08-19T23:50:56.586Z,23.77
2022-08-19T23:53:23.813Z,22.83
2022-08-19T23:55:51.041Z,24.27
2022-08-19T23:58:18.967Z,21.08
